ADDS METAR Data INFO
IDs: Format: Raw Decoded Include TAF

Data at: 0923 UTC 13 Dec 2017

KOOA 130915Z AUTO 21013KT 10SM CLR M01/M05 A2962 RMK AO2 T10061048
KOOA 130855Z AUTO 21013KT 10SM CLR M01/M05 A2965 RMK AO2 T10131050
KOOA 130835Z AUTO 21011KT 10SM CLR M01/M05 A2968 RMK AO2 T10121052
KOOA 130815Z AUTO 21011KT 10SM CLR M01/M05 A2970 RMK AO2 T10121053
KOOA 130755Z AUTO 20011KT 10SM CLR M02/M05 A2971 RMK AO2 T10161055
KOOA 130735Z AUTO 19008KT 10SM CLR M02/M06 A2973 RMK AO2 T10201059
KOOA 130715Z AUTO 20010KT 10SM CLR M02/M06 A2976 RMK AO2 T10181060
KOOA 130655Z AUTO 20010KT 10SM CLR M02/M06 A2978 RMK AO2 T10201061
KOOA 130635Z AUTO 20009KT 10SM CLR M02/M07 A2980 RMK AO2 T10251066
KOOA 130615Z AUTO 20011KT 10SM CLR M02/M07 A2982 RMK AO2 T10241068
KOOA 130555Z AUTO 20010KT 10SM SCT075 M02/M07 A2984 RMK AO2 T10231070 11010 21066 400001102
KOOA 130535Z AUTO 20009KT 10SM SCT065 BKN075 M02/M07 A2985 RMK AO2 T10171070
KOOA 130515Z AUTO 20010KT 10SM OVC070 M01/M07 A2986 RMK AO2 T10101067
KOOA 130455Z AUTO 20009KT 10SM BKN070 OVC080 M01/M07 A2988 RMK AO2 T10151071
KOOA 130435Z AUTO 21009KT 10SM BKN070 OVC085 M02/M07 A2990 RMK AO2 T10181075
KOOA 130415Z AUTO 22008KT 10SM OVC070 M02/M08 A2992 RMK AO2 T10221078
KOOA 130355Z AUTO 22009KT 10SM SCT070 BKN090 M03/M08 A2992 RMK AO2 T10281084
KOOA 130335Z AUTO 21008KT 10SM OVC100 M03/M09 A2994 RMK AO2 T10271086
KOOA 130315Z AUTO 22008KT 10SM BKN100 M03/M09 A2996 RMK AO2 T10311094
KOOA 130255Z AUTO 21007KT 10SM BKN100 M04/M10 A2997 RMK AO2 T10381103
KOOA 130235Z AUTO 21007KT 10SM BKN100 M05/M11 A2998 RMK AO2 T10461109
KOOA 130215Z AUTO 19006KT 10SM SCT100 M06/M13 A2999 RMK AO2 T10581126
KOOA 130155Z AUTO 19005KT 10SM SCT100 M06/M13 A3001 RMK AO2 T10601135
KOOA 130135Z AUTO 20005KT 10SM CLR M06/M14 A3002 RMK AO2 T10651137
KOOA 130115Z AUTO 20006KT 7SM CLR M06/M14 A3002 RMK AO2 T10611137
KOOA 130055Z AUTO 22006KT 10SM CLR M06/M14 A3002 RMK AO2 T10571139
KOOA 130035Z AUTO 23007KT 7SM CLR M05/M14 A3004 RMK AO2 T10551142
KOOA 130015Z AUTO 22007KT 10SM CLR M05/M14 A3004 RMK AO2 T10531145
KOOA 122355Z AUTO 22005KT 10SM CLR M05/M15 A3005 RMK AO2 T10531148 10000 21054
KOOA 122335Z AUTO 22006KT 10SM CLR M05/M15 A3005 RMK AO2 T10541150
KOOA 122315Z AUTO 23007KT 10SM CLR M05/M15 A3006 RMK AO2 T10461150
KOOA 122255Z AUTO 25005KT 10SM SCT100 M03/M15 A3008 RMK AO2 T10311150
KOOA 122235Z AUTO 26007KT 10SM BKN100 M02/M15 A3009 RMK AO2 T10171152
KOOA 122215Z AUTO 28009KT 10SM OVC110 M01/M15 A3010 RMK AO2 T10071155
KOOA 122155Z AUTO 27009KT 10SM OVC110 M01/M16 A3010 RMK AO2 T10081162
KOOA 122135Z AUTO 28012G15KT 10SM OVC110 M01/M17 A3010 RMK AO2 T10101171
KOOA 122115Z AUTO 28012KT 10SM BKN120 00/M18 A3011 RMK AO2 T00001178
KOOA 122055Z AUTO 28012KT 10SM CLR M01/M19 A3012 RMK AO2 T10061188
KOOA 122035Z AUTO 28010KT 10SM CLR M01/M18 A3013 RMK AO2 T10061181
KOOA 122015Z AUTO 30009G14KT 10SM CLR M01/M18 A3014 RMK AO2 T10101177
KOOA 121955Z AUTO 29010KT 10SM CLR M01/M17 A3015 RMK AO2 T10121174
KOOA 121935Z AUTO 27011KT 10SM CLR M01/M17 A3015 RMK AO2 T10141173
KOOA 121915Z AUTO 29011G15KT 10SM CLR M02/M17 A3017 RMK AO2 T10161166
KOOA 121855Z AUTO 29012KT 10SM CLR M02/M17 A3018 RMK AO2 T10201167
KOOA 121835Z AUTO 31011KT 10SM CLR M02/M17 A3019 RMK AO2 T10241169
KOOA 121815Z AUTO 28011KT 10SM CLR M03/M16 A3020 RMK AO2 T10281164
KOOA 121755Z AUTO 29007KT 10SM CLR M03/M15 A3021 RMK AO2 T10351155 11035 21102
KOOA 121735Z AUTO 30008KT 10SM CLR M04/M15 A3024 RMK AO2 T10401154
KOOA 121715Z AUTO 31008KT 10SM CLR M04/M14 A3025 RMK AO2 T10451139
KOOA 121655Z AUTO 32011G16KT 10SM CLR M05/M14 A3027 RMK AO2 T10501139
KOOA 121635Z AUTO 31011KT 10SM CLR M06/M13 A3027 RMK AO2 T10561131
KOOA 121615Z AUTO 31013KT 10SM CLR M07/M13 A3027 RMK AO2 T10661135
KOOA 121555Z AUTO 31010KT 10SM CLR M07/M13 A3027 RMK AO2 T10701132
KOOA 121535Z AUTO 31013KT 10SM CLR M07/M13 A3027 RMK AO2 T10741131
KOOA 121515Z AUTO 32011KT 10SM CLR M08/M13 A3027 RMK AO2 T10801131
KOOA 121435Z AUTO 31010KT 10SM CLR M09/M13 A3027 RMK AO2 T10901130
KOOA 121415Z AUTO 31011KT 10SM CLR M09/M13 A3026 RMK AO2 T10951127
KOOA 121355Z AUTO 31007KT 10SM CLR M10/M13 A3026 RMK AO2 T11001130
KOOA 121335Z AUTO 32007KT 10SM CLR M10/M13 A3026 RMK AO2 T11021130
KOOA 121315Z AUTO 31010KT 10SM CLR M10/M13 A3026 RMK AO2 T11011130
KOOA 121255Z AUTO 32009KT 10SM CLR M10/M13 A3027 RMK AO2 T11001127
KOOA 121235Z AUTO 31012KT 10SM CLR M10/M12 A3026 RMK AO2 T11001123
KOOA 121215Z AUTO 31012KT 10SM CLR M10/M12 A3025 RMK AO2 T10991120
KOOA 121155Z AUTO 31010KT 10SM CLR M10/M12 A3025 RMK AO2 T10981118 11026 21098
KOOA 121135Z AUTO 30011KT 10SM CLR M10/M12 A3025 RMK AO2 T10961117
KOOA 121115Z AUTO 31011KT 10SM CLR M09/M11 A3025 RMK AO2 T10911115
KOOA 121055Z AUTO 32009KT 10SM CLR M09/M11 A3024 RMK AO2 T10901113
KOOA 121035Z AUTO 32010KT 10SM CLR M09/M11 A3024 RMK AO2 T10881110
KOOA 121015Z AUTO 32012KT 10SM CLR M09/M11 A3024 RMK AO2 T10861107
KOOA 120955Z AUTO 32011KT 10SM CLR M08/M10 A3024 RMK AO2 T10831105
KOOA 120935Z AUTO 33015G19KT 10SM CLR M08/M10 A3024 RMK AO2 T10791102
KOOA 120915Z AUTO 33015G20KT 10SM CLR M07/M10 A3024 RMK AO2 T10721097
KOOA 120855Z AUTO 32014KT 10SM CLR M07/M09 A3023 RMK AO2 T10671093
KOOA 120835Z AUTO 32015KT 10SM CLR M06/M09 A3023 RMK AO2 T10631091
KOOA 120815Z AUTO 32014G19KT 10SM CLR M06/M09 A3023 RMK AO2 T10601090
KOOA 120755Z AUTO 32016KT 10SM CLR M05/M09 A3022 RMK AO2 T10551088
KOOA 120735Z AUTO 32016G20KT 10SM CLR M05/M09 A3022 RMK AO2 T10521086
KOOA 120715Z AUTO 32015G23KT 10SM CLR M05/M08 A3020 RMK AO2 T10481085
KOOA 120655Z AUTO 32017G21KT 10SM SCT025 M04/M08 A3020 RMK AO2 T10451083
KOOA 120635Z AUTO 32017G22KT 10SM SCT027 M04/M08 A3020 RMK AO2 T10421081
KOOA 120615Z AUTO 32019G26KT 10SM SCT029 M04/M08 A3019 RMK AO2 T10361080
KOOA 120555Z AUTO 33017G26KT 10SM OVC029 M02/M07 A3018 RMK AO2 T10251074 10033 21025 400801033
KOOA 120535Z AUTO 33017G23KT 10SM OVC029 M02/M07 A3017 RMK AO2 T10231070
KOOA 120515Z AUTO 32018G22KT 10SM OVC031 M02/M07 A3017 RMK AO2 T10201067
KOOA 120455Z AUTO 32019G26KT 10SM OVC031 M02/M06 A3016 RMK AO2 T10171065
KOOA 120435Z AUTO 33023G28KT 10SM OVC029 M01/M06 A3015 RMK AO2 T10111061
KOOA 120415Z AUTO 33021G32KT 10SM OVC029 00/M06 A3014 RMK AO2 T10051056
KOOA 120355Z AUTO 32020G30KT 10SM OVC029 00/M05 A3013 RMK AO2 T10011051
KOOA 120335Z AUTO 32024KT 10SM OVC027 00/M04 A3012 RMK AO2 T00011045
KOOA 120315Z AUTO 33023G30KT 10SM BKN023 OVC028 01/M04 A3011 RMK AO2 T00051040
KOOA 120255Z AUTO 33024G30KT 10SM OVC021 01/M03 A3010 RMK AO2 T00101032
KOOA 120235Z AUTO 32023G26KT 10SM OVC023 01/M02 A3008 RMK AO2 T00121025
KOOA 120215Z AUTO 33021G27KT 10SM SCT019 OVC025 02/M02 A3007 RMK AO2 T00151021
KOOA 120155Z AUTO 33020G26KT 10SM OVC020 02/M02 A3005 RMK AO2 T00161020
KOOA 120135Z AUTO 33023G31KT 10SM OVC020 02/M01 A3004 RMK AO2 T00211015
KOOA 120115Z AUTO 32022G28KT 10SM OVC020 03/M01 A3002 RMK AO2 T00251011
KOOA 120055Z AUTO 32022G26KT 10SM OVC020 03/M01 A3001 RMK AO2 T00301007
KOOA 120035Z AUTO 33017G26KT 10SM OVC020 03/M01 A3000 RMK AO2 T00311006
KOOA 120015Z AUTO 33016G24KT 10SM OVC018 03/00 A2999 RMK AO2 T00321005
KOOA 112355Z AUTO 32018G23KT 10SM OVC020 03/00 A2998 RMK AO2 T00331003 10080 20033
KOOA 112335Z AUTO 34022G31KT 10SM OVC020 04/00 A2996 RMK AO2 T00361002
KOOA 112315Z AUTO 34025G34KT 10SM OVC020 04/00 A2995 RMK AO2 T00380000
KOOA 112255Z AUTO 33027G30KT 10SM OVC020 04/00 A2993 RMK AO2 T00400000
KOOA 112235Z AUTO 33018G23KT 10SM OVC022 04/00 A2992 RMK AO2 T00420000
KOOA 112215Z AUTO 32022G28KT 10SM OVC024 05/00 A2990 RMK AO2 T00460000
KOOA 112155Z AUTO 32020G24KT 10SM OVC026 05/00 A2988 RMK AO2 T00500000
KOOA 112135Z AUTO 32018G26KT 10SM OVC026 05/00 A2987 RMK AO2 T00500000